createdAt,value
2022-11-21T00:01:17.184Z,-2.30
2022-11-21T00:03:50.272Z,-2.34
2022-11-21T00:06:23.860Z,-2.40
2022-11-21T00:08:58.190Z,-2.40
2022-11-21T00:11:30.636Z,-2.40
2022-11-21T00:14:03.391Z,-2.50
2022-11-21T00:16:35.888Z,-2.58
2022-11-21T00:19:08.936Z,-2.62
2022-11-21T00:21:41.352Z,-2.70
2022-11-21T00:24:15.831Z,-2.78
2022-11-21T00:26:48.456Z,-2.80
2022-11-21T00:29:20.954Z,-2.80
2022-11-21T00:31:53.516Z,-2.80
2022-11-21T00:34:26.160Z,-2.80
2022-11-21T00:36:58.831Z,-2.80
2022-11-21T00:39:31.541Z,-2.80
2022-11-21T00:42:04.198Z,-2.80
2022-11-21T00:44:36.669Z,-2.84
2022-11-21T00:47:09.180Z,-2.90
2022-11-21T00:49:41.809Z,-2.90
2022-11-21T00:52:14.330Z,-2.90
2022-11-21T00:54:46.900Z,-2.90
2022-11-21T00:57:19.453Z,-2.90
2022-11-21T00:59:52.425Z,-3.00
2022-11-21T01:02:25.109Z,-2.98
2022-11-21T01:04:57.597Z,-2.94
2022-11-21T01:07:30.127Z,-2.90
2022-11-21T01:10:02.610Z,-2.90
2022-11-21T01:12:35.256Z,-2.90
2022-11-21T01:15:09.849Z,-2.80
2022-11-21T01:17:42.668Z,-2.70
2022-11-21T01:20:15.846Z,-2.70
2022-11-21T01:22:48.328Z,-2.60
2022-11-21T01:25:21.338Z,-2.50
2022-11-21T01:27:53.766Z,-2.40
2022-11-21T01:30:26.187Z,-2.30
2022-11-21T01:32:58.695Z,-2.20
2022-11-21T01:35:31.211Z,-2.18
2022-11-21T01:38:03.798Z,-2.10
2022-11-21T01:40:41.771Z,-2.04
2022-11-21T01:43:17.713Z,-2.00
2022-11-21T01:45:59.776Z,-2.00
2022-11-21T01:48:39.492Z,-2.00
2022-11-21T01:51:18.793Z,-1.92
2022-11-21T01:53:57.614Z,-1.90
2022-11-21T01:56:35.112Z,-1.86
2022-11-21T01:59:08.979Z,-1.80
2022-11-21T02:01:41.899Z,-1.80
2022-11-21T02:04:14.392Z,-1.80
2022-11-21T02:06:47.310Z,-1.80
2022-11-21T02:09:20.374Z,-1.80
2022-11-21T02:11:59.683Z,-1.76
2022-11-21T02:14:32.842Z,-1.70
2022-11-21T02:17:08.776Z,-1.70
2022-11-21T02:19:52.831Z,-1.60
2022-11-21T02:22:35.145Z,-1.60
2022-11-21T02:25:13.439Z,-1.50
2022-11-21T02:27:46.502Z,-1.50
2022-11-21T02:30:20.028Z,-1.50
2022-11-21T02:32:52.619Z,-1.40
2022-11-21T02:35:25.410Z,-1.40
2022-11-21T02:38:01.542Z,-1.30
2022-11-21T02:40:38.680Z,-1.30
2022-11-21T02:43:16.147Z,-1.22
2022-11-21T02:45:49.497Z,-1.20
2022-11-21T02:48:22.119Z,-1.20
2022-11-21T02:50:54.686Z,-1.20
2022-11-21T02:53:27.170Z,-1.20
2022-11-21T02:55:59.839Z,-1.20
2022-11-21T02:58:32.718Z,-1.20
2022-11-21T03:01:05.290Z,-1.20
2022-11-21T03:03:37.755Z,-1.10
2022-11-21T03:06:10.389Z,-1.10
2022-11-21T03:08:42.862Z,-1.10
2022-11-21T03:11:15.341Z,-1.10
2022-11-21T03:13:47.792Z,-1.08
2022-11-21T03:16:20.337Z,-1.02
2022-11-21T03:18:52.743Z,-1.00
2022-11-21T03:21:25.237Z,-1.00
2022-11-21T03:23:57.669Z,-1.00
2022-11-21T03:26:30.919Z,-0.92
2022-11-21T03:29:03.920Z,-0.90
2022-11-21T03:31:36.649Z,-0.90
2022-11-21T03:34:09.387Z,-0.90
2022-11-21T03:36:42.034Z,-0.90
2022-11-21T03:39:14.570Z,-0.90
2022-11-21T03:41:47.151Z,-0.90
2022-11-21T03:44:19.641Z,-0.80
2022-11-21T03:46:52.206Z,-0.80
2022-11-21T03:49:24.661Z,-0.80
2022-11-21T03:51:57.152Z,-0.70
2022-11-21T03:54:29.816Z,-0.70
2022-11-21T03:57:02.712Z,-0.64
2022-11-21T03:59:35.100Z,-0.60
2022-11-21T04:02:09.008Z,-0.60
2022-11-21T04:04:41.609Z,-0.56
2022-11-21T04:07:14.122Z,-0.52
2022-11-21T04:09:46.598Z,-0.54
2022-11-21T04:12:19.060Z,-0.56
2022-11-21T04:14:51.535Z,-0.60
2022-11-21T04:17:23.953Z,-0.60
2022-11-21T04:19:56.482Z,-0.60
2022-11-21T04:22:28.918Z,-0.60
2022-11-21T04:25:01.317Z,-0.60
2022-11-21T04:27:33.755Z,-0.60
2022-11-21T04:30:07.555Z,-0.60
2022-11-21T04:32:40.084Z,-0.60
2022-11-21T04:35:13.256Z,-0.60
2022-11-21T04:37:45.796Z,-0.60
2022-11-21T04:40:19.459Z,-0.60
2022-11-21T04:42:52.127Z,-0.60
2022-11-21T04:45:24.587Z,-0.60
2022-11-21T04:47:57.141Z,-0.60
2022-11-21T04:50:29.601Z,-0.62
2022-11-21T04:53:02.085Z,-0.62
2022-11-21T04:55:35.985Z,-0.60
2022-11-21T04:58:08.674Z,-0.60
2022-11-21T05:00:41.156Z,-0.60
2022-11-21T05:03:13.727Z,-0.60
2022-11-21T05:05:46.268Z,-0.60
2022-11-21T05:08:18.818Z,-0.50
2022-11-21T05:11:09.018Z,-0.50
2022-11-21T05:13:41.542Z,-0.40
2022-11-21T05:16:14.046Z,-0.40
2022-11-21T05:18:46.653Z,-0.40
2022-11-21T05:21:19.110Z,-0.40
2022-11-21T05:23:51.608Z,-0.40
2022-11-21T05:26:24.071Z,-0.32
2022-11-21T05:28:56.616Z,-0.30
2022-11-21T05:31:29.034Z,-0.30
2022-11-21T05:34:01.794Z,-0.30
2022-11-21T05:36:34.347Z,-0.30
2022-11-21T05:39:07.012Z,-0.30
2022-11-21T05:41:39.707Z,-0.20
2022-11-21T05:44:12.377Z,-0.20
2022-11-21T05:46:45.019Z,-0.20
2022-11-21T05:49:18.976Z,-0.20
2022-11-21T05:51:51.462Z,-0.20
2022-11-21T05:54:24.042Z,-0.20
2022-11-21T05:56:56.607Z,-0.20
2022-11-21T05:59:29.171Z,-0.20
2022-11-21T06:02:19.079Z,-0.20
2022-11-21T06:04:51.631Z,-0.20
2022-11-21T06:07:24.207Z,-0.20
2022-11-21T06:09:56.914Z,-0.20
2022-11-21T06:12:29.419Z,-0.20
2022-11-21T06:15:01.919Z,-0.20
2022-11-21T06:17:34.971Z,-0.20
2022-11-21T06:20:09.446Z,-0.20
2022-11-21T06:22:41.996Z,-0.26
2022-11-21T06:25:14.986Z,-0.30
2022-11-21T06:27:47.528Z,-0.30
2022-11-21T06:30:22.335Z,-0.30
2022-11-21T06:32:55.091Z,-0.20
2022-11-21T06:35:27.603Z,-0.20
2022-11-21T06:38:00.490Z,-0.20
2022-11-21T06:40:33.047Z,-0.20
2022-11-21T06:43:05.583Z,-0.20
2022-11-21T06:45:38.035Z,-0.20
2022-11-21T06:48:11.212Z,-0.20
2022-11-21T06:50:44.031Z,-0.20
2022-11-21T06:53:16.547Z,-0.16
2022-11-21T06:55:49.054Z,-0.10
2022-11-21T06:58:23.635Z,-0.10
2022-11-21T07:00:56.466Z,-0.08
2022-11-21T07:03:28.952Z,0.00
2022-11-21T07:06:02.827Z,0.00
2022-11-21T07:08:37.711Z,0.10
2022-11-21T07:11:29.039Z,0.10
2022-11-21T07:14:06.256Z,0.20
2022-11-21T07:16:41.418Z,0.20
2022-11-21T07:19:14.182Z,0.30
2022-11-21T07:21:46.652Z,0.30
2022-11-21T07:24:19.229Z,0.40
2022-11-21T07:26:51.823Z,0.40
2022-11-21T07:29:24.630Z,0.50
2022-11-21T07:31:57.260Z,0.52
2022-11-21T07:34:29.708Z,0.60
2022-11-21T07:37:05.151Z,0.68
2022-11-21T07:39:37.863Z,0.70
2022-11-21T07:42:10.377Z,0.80
2022-11-21T07:44:42.845Z,0.86
2022-11-21T07:47:15.492Z,0.90
2022-11-21T07:49:48.184Z,1.00
2022-11-21T07:52:21.019Z,1.10
2022-11-21T07:54:53.834Z,1.10
2022-11-21T07:57:27.284Z,1.20
2022-11-21T07:59:59.704Z,1.24
2022-11-21T08:02:32.486Z,1.30
2022-11-21T08:05:05.165Z,1.40
2022-11-21T08:07:37.697Z,1.50
2022-11-21T08:10:11.452Z,1.50
2022-11-21T08:12:44.163Z,1.60
2022-11-21T08:15:16.781Z,1.70
2022-11-21T08:17:49.313Z,1.70
2022-11-21T08:20:21.993Z,1.80
2022-11-21T08:22:54.457Z,1.90
2022-11-21T08:25:27.285Z,1.90
2022-11-21T08:28:02.935Z,2.00
2022-11-21T08:30:36.420Z,2.00
2022-11-21T08:33:09.420Z,2.00
2022-11-21T08:35:42.353Z,2.10
2022-11-21T08:38:14.853Z,2.10
2022-11-21T08:40:47.419Z,2.20
2022-11-21T08:43:19.935Z,2.30
2022-11-21T08:45:52.411Z,2.30
2022-11-21T08:48:24.934Z,2.34
2022-11-21T08:50:59.460Z,2.40
2022-11-21T08:53:31.976Z,2.40
2022-11-21T08:56:04.776Z,2.50
2022-11-21T08:58:37.302Z,2.54
2022-11-21T09:01:09.842Z,2.60
2022-11-21T09:03:42.383Z,2.64
2022-11-21T09:06:14.923Z,2.70
2022-11-21T09:08:47.491Z,2.70
2022-11-21T09:11:20.169Z,2.70
2022-11-21T09:14:06.677Z,2.80
2022-11-21T09:17:01.812Z,2.90
2022-11-21T09:19:34.972Z,2.96
2022-11-21T09:22:07.526Z,3.00
2022-11-21T09:24:40.066Z,3.10
2022-11-21T09:27:12.578Z,3.20
2022-11-21T09:29:51.075Z,3.30
2022-11-21T09:32:26.799Z,3.40
2022-11-21T09:34:59.278Z,3.50
2022-11-21T09:37:32.054Z,3.60
2022-11-21T09:40:07.319Z,3.60
2022-11-21T09:43:04.432Z,3.70
2022-11-21T09:45:43.292Z,3.70
2022-11-21T09:48:22.732Z,3.80
2022-11-21T09:51:00.263Z,3.80
2022-11-21T09:53:36.112Z,3.90
2022-11-21T09:56:12.376Z,4.00
2022-11-21T09:58:50.194Z,4.10
2022-11-21T10:01:22.741Z,4.20
2022-11-21T10:03:55.575Z,4.30
2022-11-21T10:06:31.929Z,4.46
2022-11-21T10:09:16.370Z,4.60
2022-11-21T10:12:16.056Z,4.78
2022-11-21T10:15:02.339Z,5.00
2022-11-21T10:17:45.609Z,5.10
2022-11-21T10:20:49.473Z,5.30
2022-11-21T10:23:42.967Z,5.50
2022-11-21T10:26:31.118Z,5.64
2022-11-21T10:29:10.512Z,5.78
2022-11-21T10:31:44.494Z,5.82
2022-11-21T10:34:20.466Z,5.84
2022-11-21T10:36:59.036Z,5.88
2022-11-21T10:39:38.667Z,5.90
2022-11-21T10:42:27.685Z,6.00
2022-11-21T10:45:18.584Z,6.10
2022-11-21T10:47:52.896Z,6.20
2022-11-21T10:50:45.248Z,6.20
2022-11-21T10:53:39.840Z,6.20
2022-11-21T10:56:16.015Z,6.20
2022-11-21T10:58:51.237Z,6.20
2022-11-21T11:01:31.493Z,6.26
2022-11-21T11:04:27.869Z,6.30
2022-11-21T11:07:21.924Z,6.40
2022-11-21T11:10:14.731Z,6.50
2022-11-21T11:13:30.924Z,6.60
2022-11-21T11:16:07.925Z,6.66
2022-11-21T11:18:47.123Z,6.68
2022-11-21T11:21:23.279Z,6.68
2022-11-21T11:24:07.709Z,6.60
2022-11-21T11:26:53.610Z,6.60
2022-11-21T11:29:27.866Z,6.58
2022-11-21T11:32:04.513Z,6.56
2022-11-21T11:34:50.932Z,6.50
2022-11-21T11:37:39.812Z,6.52
2022-11-21T11:40:31.075Z,6.50
2022-11-21T11:43:43.795Z,6.50
2022-11-21T11:47:01.052Z,6.40
2022-11-21T11:49:55.879Z,6.40
2022-11-21T11:52:35.115Z,6.30
2022-11-21T11:55:18.238Z,6.30
2022-11-21T11:57:54.161Z,6.28
2022-11-21T12:00:36.485Z,6.20
2022-11-21T12:03:19.861Z,6.20
2022-11-21T12:06:09.159Z,6.20
2022-11-21T12:08:51.817Z,6.26
2022-11-21T12:11:53.357Z,6.30
2022-11-21T12:15:03.001Z,6.30
2022-11-21T12:17:42.961Z,6.30
2022-11-21T12:20:24.007Z,6.28
2022-11-21T12:22:57.908Z,6.20
2022-11-21T12:25:36.292Z,6.20
2022-11-21T12:28:22.538Z,6.10
2022-11-21T12:31:10.618Z,6.00
2022-11-21T12:33:52.712Z,5.90
2022-11-21T12:36:40.821Z,5.80
2022-11-21T12:39:48.168Z,5.68
2022-11-21T12:42:47.170Z,5.50
2022-11-21T12:45:33.648Z,5.40
2022-11-21T12:48:41.078Z,5.30
2022-11-21T12:52:00.204Z,5.12
2022-11-21T12:54:58.449Z,5.00
2022-11-21T12:57:43.211Z,4.84
2022-11-21T13:00:26.398Z,4.70
2022-11-21T13:03:27.562Z,4.60
2022-11-21T13:06:02.149Z,4.44
2022-11-21T13:08:39.355Z,4.38
2022-11-21T13:11:38.436Z,4.30
2022-11-21T13:14:20.048Z,4.30
2022-11-21T13:17:04.659Z,4.20
2022-11-21T13:19:51.675Z,4.20
2022-11-21T13:23:01.833Z,4.20
2022-11-21T13:25:48.110Z,4.18
2022-11-21T13:28:40.357Z,4.12
2022-11-21T13:31:34.508Z,4.10
2022-11-21T13:34:27.794Z,4.10
2022-11-21T13:37:03.787Z,4.10
2022-11-21T13:39:40.739Z,4.10
2022-11-21T13:42:37.338Z,4.02
2022-11-21T13:45:45.221Z,4.00
2022-11-21T13:48:52.752Z,3.90
2022-11-21T13:51:52.898Z,3.84
2022-11-21T13:55:05.701Z,3.80
2022-11-21T13:58:14.760Z,3.80
2022-11-21T14:01:13.616Z,3.70
2022-11-21T14:04:33.948Z,3.62
2022-11-21T14:07:29.203Z,3.60
2022-11-21T14:10:03.999Z,3.50
2022-11-21T14:12:44.407Z,3.40
2022-11-21T14:15:27.378Z,3.40
2022-11-21T14:18:02.398Z,3.30
2022-11-21T14:20:49.762Z,3.30
2022-11-21T14:23:24.554Z,3.20
2022-11-21T14:26:01.005Z,3.18
2022-11-21T14:28:36.172Z,3.10
2022-11-21T14:31:11.098Z,3.06
2022-11-21T14:33:45.102Z,3.00
2022-11-21T14:36:21.162Z,3.00
2022-11-21T14:39:34.765Z,2.90
2022-11-21T14:41:52.833Z,2.90
2022-11-21T14:44:26.304Z,2.80
2022-11-21T14:47:25.136Z,2.80
2022-11-21T14:50:07.066Z,2.74
2022-11-21T14:52:40.178Z,2.70
2022-11-21T14:55:30.594Z,2.62
2022-11-21T14:58:06.824Z,2.60
2022-11-21T15:03:31.969Z,2.50
2022-11-21T15:06:08.284Z,2.40
2022-11-21T15:09:33.281Z,2.40
2022-11-21T15:11:40.063Z,2.40
2022-11-21T15:14:24.749Z,2.30
2022-11-21T15:16:59.672Z,2.30
2022-11-21T15:19:33.831Z,2.20
2022-11-21T15:22:07.195Z,2.20
2022-11-21T15:24:43.458Z,2.10
2022-11-21T15:27:36.762Z,2.10
2022-11-21T15:30:28.024Z,2.10
2022-11-21T15:33:13.020Z,2.00
2022-11-21T15:35:57.369Z,2.00
2022-11-21T15:38:42.304Z,2.00
2022-11-21T15:41:33.028Z,2.00
2022-11-21T15:44:25.301Z,1.90
2022-11-21T15:46:57.704Z,1.90
2022-11-21T15:49:33.788Z,1.80
2022-11-21T15:52:13.458Z,1.70
2022-11-21T15:54:47.363Z,1.60
2022-11-21T15:57:22.157Z,1.50
2022-11-21T15:59:55.275Z,1.50
2022-11-21T16:02:27.848Z,1.40
2022-11-21T16:05:00.364Z,1.40
2022-11-21T16:07:33.456Z,1.40
2022-11-21T16:10:09.005Z,1.40
2022-11-21T16:12:47.122Z,1.40
2022-11-21T16:15:19.982Z,1.40
2022-11-21T16:17:54.103Z,1.40
2022-11-21T16:20:26.706Z,1.40
2022-11-21T16:22:59.456Z,1.40
2022-11-21T16:25:32.481Z,1.30
2022-11-21T16:28:07.284Z,1.30
2022-11-21T16:30:43.368Z,1.30
2022-11-21T16:33:15.840Z,1.30
2022-11-21T16:35:49.987Z,1.20
2022-11-21T16:38:22.852Z,1.20
2022-11-21T16:41:00.272Z,1.20
2022-11-21T16:43:33.119Z,1.20
2022-11-21T16:46:10.947Z,1.20
2022-11-21T16:48:43.876Z,1.20
2022-11-21T16:51:18.716Z,1.20
2022-11-21T16:53:52.184Z,1.20
2022-11-21T16:56:24.695Z,1.20
2022-11-21T16:58:57.429Z,1.18
2022-11-21T17:01:30.649Z,1.16
2022-11-21T17:04:03.439Z,1.10
2022-11-21T17:06:35.946Z,1.10
2022-11-21T17:09:08.784Z,1.10
2022-11-21T17:11:41.252Z,1.10
2022-11-21T17:14:15.096Z,1.10
2022-11-21T17:16:48.965Z,1.10
2022-11-21T17:19:22.240Z,1.12
2022-11-21T17:21:55.173Z,1.10
2022-11-21T17:24:28.032Z,1.12
2022-11-21T17:27:02.697Z,1.18
2022-11-21T17:29:35.285Z,1.20
2022-11-21T17:32:08.262Z,1.20
2022-11-21T17:34:41.041Z,1.20
2022-11-21T17:37:13.690Z,1.10
2022-11-21T17:39:46.193Z,1.10
2022-11-21T17:42:18.626Z,1.00
2022-11-21T17:44:51.350Z,1.00
2022-11-21T17:47:23.931Z,1.00
2022-11-21T17:49:58.975Z,0.94
2022-11-21T17:52:33.678Z,0.94
2022-11-21T17:55:07.054Z,0.90
2022-11-21T17:57:39.644Z,0.92
2022-11-21T18:00:15.667Z,0.92
2022-11-21T18:02:48.191Z,0.96
2022-11-21T18:05:20.775Z,1.00
2022-11-21T18:07:53.236Z,1.00
2022-11-21T18:10:42.812Z,1.00
2022-11-21T18:13:16.126Z,1.10
2022-11-21T18:15:48.868Z,1.10
2022-11-21T18:18:21.618Z,1.10
2022-11-21T18:20:54.409Z,1.10
2022-11-21T18:23:28.597Z,1.10
2022-11-21T18:26:06.364Z,1.14
2022-11-21T18:28:38.997Z,1.10
2022-11-21T18:31:13.498Z,1.16
2022-11-21T18:33:49.315Z,1.18
2022-11-21T18:36:22.648Z,1.14
2022-11-21T18:39:02.963Z,1.12
2022-11-21T18:41:38.950Z,1.10
2022-11-21T18:44:20.095Z,1.10
2022-11-21T18:46:54.317Z,1.10
2022-11-21T18:49:27.112Z,1.10
2022-11-21T18:51:59.909Z,1.10
2022-11-21T18:54:32.492Z,1.10
2022-11-21T18:57:05.205Z,1.10
2022-11-21T18:59:37.893Z,1.10
2022-11-21T19:02:12.144Z,1.10
2022-11-21T19:04:45.864Z,1.10
2022-11-21T19:07:18.592Z,1.00
2022-11-21T19:09:51.279Z,1.00
2022-11-21T19:12:23.830Z,0.90
2022-11-21T19:14:56.351Z,0.84
2022-11-21T19:17:28.838Z,0.80
2022-11-21T19:20:01.440Z,0.80
2022-11-21T19:22:34.010Z,0.70
2022-11-21T19:25:07.902Z,0.70
2022-11-21T19:27:40.478Z,0.70
2022-11-21T19:30:15.208Z,0.72
2022-11-21T19:32:47.851Z,0.80
2022-11-21T19:35:20.748Z,0.80
2022-11-21T19:37:53.444Z,0.80
2022-11-21T19:40:49.823Z,0.80
2022-11-21T19:43:23.174Z,0.80
2022-11-21T19:45:58.139Z,0.80
2022-11-21T19:48:31.008Z,0.80
2022-11-21T19:51:05.074Z,0.80
2022-11-21T19:53:40.350Z,0.80
2022-11-21T19:56:15.929Z,0.80
2022-11-21T19:58:49.287Z,0.70
2022-11-21T20:01:23.989Z,0.70
2022-11-21T20:04:00.037Z,0.60
2022-11-21T20:06:34.859Z,0.56
2022-11-21T20:09:10.276Z,0.50
2022-11-21T20:11:44.483Z,0.40
2022-11-21T20:14:21.853Z,0.40
2022-11-21T20:16:55.785Z,0.32
2022-11-21T20:19:29.720Z,0.30
2022-11-21T20:22:02.326Z,0.30
2022-11-21T20:24:39.932Z,0.30
2022-11-21T20:27:14.183Z,0.40
2022-11-21T20:29:46.721Z,0.40
2022-11-21T20:32:19.302Z,0.50
2022-11-21T20:34:51.924Z,0.50
2022-11-21T20:37:24.751Z,0.60
2022-11-21T20:39:57.250Z,0.60
2022-11-21T20:42:29.686Z,0.70
2022-11-21T20:47:54.588Z,0.80
2022-11-21T20:51:14.748Z,0.86
2022-11-21T20:53:50.685Z,0.90
2022-11-21T20:56:13.939Z,0.92
2022-11-21T20:58:48.298Z,1.00
2022-11-21T21:01:24.035Z,1.00
2022-11-21T21:03:56.721Z,1.00
2022-11-21T21:06:30.947Z,1.00
2022-11-21T21:09:03.433Z,1.04
2022-11-21T21:11:53.095Z,1.06
2022-11-21T21:14:26.565Z,1.08
2022-11-21T21:16:59.076Z,1.08
2022-11-21T21:19:31.969Z,1.10
2022-11-21T21:22:05.226Z,1.10
2022-11-21T21:24:37.798Z,1.10
2022-11-21T21:27:10.329Z,1.10
2022-11-21T21:29:42.886Z,1.10
2022-11-21T21:32:15.523Z,1.10
2022-11-21T21:34:48.150Z,1.10
2022-11-21T21:37:22.017Z,1.10
2022-11-21T21:39:54.810Z,1.08
2022-11-21T21:42:27.239Z,1.00
2022-11-21T21:45:02.539Z,1.00
2022-11-21T21:47:35.071Z,0.90
2022-11-21T21:50:15.499Z,0.90
2022-11-21T21:52:48.325Z,0.88
2022-11-21T21:55:20.832Z,0.80
2022-11-21T21:57:53.388Z,0.80
2022-11-21T22:00:25.904Z,0.80
2022-11-21T22:02:58.350Z,0.80
2022-11-21T22:05:30.926Z,0.80
2022-11-21T22:08:03.928Z,0.80
2022-11-21T22:10:36.793Z,0.80
2022-11-21T22:13:09.238Z,0.80
2022-11-21T22:15:41.748Z,0.80
2022-11-21T22:18:14.209Z,0.80
2022-11-21T22:20:46.709Z,0.80
2022-11-21T22:23:19.312Z,0.80
2022-11-21T22:25:55.741Z,0.80
2022-11-21T22:28:29.839Z,0.80
2022-11-21T22:31:02.802Z,0.80
2022-11-21T22:33:35.850Z,0.80
2022-11-21T22:36:12.180Z,0.80
2022-11-21T22:38:45.251Z,0.80
2022-11-21T22:41:20.615Z,0.82
2022-11-21T22:43:56.704Z,0.86
2022-11-21T22:46:30.684Z,0.88
2022-11-21T22:49:03.806Z,0.84
2022-11-21T22:51:36.556Z,0.80
2022-11-21T22:54:09.042Z,0.88
2022-11-21T22:56:41.677Z,0.90
2022-11-21T22:59:16.331Z,0.90
2022-11-21T23:01:48.793Z,0.90
2022-11-21T23:04:21.372Z,0.90
2022-11-21T23:06:53.931Z,0.90
2022-11-21T23:09:26.773Z,0.90
2022-11-21T23:11:59.505Z,0.94
2022-11-21T23:14:31.980Z,1.00
2022-11-21T23:17:04.438Z,1.00
2022-11-21T23:19:37.140Z,1.00
2022-11-21T23:22:09.701Z,1.00
2022-11-21T23:24:42.207Z,1.00
2022-11-21T23:27:14.683Z,1.00
2022-11-21T23:29:47.172Z,1.00
2022-11-21T23:32:19.650Z,1.00
2022-11-21T23:34:52.172Z,1.00
2022-11-21T23:37:24.589Z,1.00
2022-11-21T23:39:57.046Z,1.10
2022-11-21T23:42:29.552Z,1.10
2022-11-21T23:45:01.989Z,1.10
2022-11-21T23:47:34.473Z,1.10
2022-11-21T23:50:08.215Z,1.10
2022-11-21T23:52:41.145Z,1.10
2022-11-21T23:55:14.235Z,1.10
2022-11-21T23:57:49.176Z,1.10
